Time;durP1;ratioP1;P1;durP2;ratioP2;P2;SDS_P1;SDS_P2;PMS_P1;PMS_P2;Temp;Humidity;BMP_temperature;BMP_pressure;BME280_temperature;BME280_humidity;BME280_pressure;Samples;Min_cycle;Max_cycle;Signal;HPM_P1;HPM_P2
2022/01/09 00:00:00;;;;;;;0.70;0.70;;;;;;;;;;5124133;28;20195;-69
2022/01/09 00:02:27;;;;;;;0.80;0.80;;;;;;;;;;5124699;28;20218;-68
2022/01/09 00:04:57;;;;;;;0.85;0.77;;;;;;;;;;5124208;28;20201;-68
2022/01/09 00:07:24;;;;;;;0.63;0.63;;;;;;;;;;5124885;28;20195;-68
2022/01/09 00:09:51;;;;;;;1.13;0.68;;;;;;;;;;5124976;28;20195;-68
2022/01/09 00:12:18;;;;;;;0.60;0.60;;;;;;;;;;5124761;28;20195;-68
2022/01/09 00:14:45;;;;;;;0.60;0.60;;;;;;;;;;5123891;28;20518;-68
2022/01/09 00:17:12;;;;;;;0.60;0.60;;;;;;;;;;5123958;28;20371;-68
2022/01/09 00:19:39;;;;;;;0.88;0.50;;;;;;;;;;5124143;28;20206;-70
2022/01/09 00:22:08;;;;;;;0.40;0.40;;;;;;;;;;5124264;28;20215;-69
2022/01/09 00:24:36;;;;;;;0.50;0.50;;;;;;;;;;5123246;28;20183;-69
2022/01/09 00:27:03;;;;;;;0.55;0.55;;;;;;;;;;5124046;28;20244;-69
2022/01/09 00:29:30;;;;;;;0.50;0.50;;;;;;;;;;5124586;28;20217;-69
2022/01/09 00:31:57;;;;;;;0.98;0.50;;;;;;;;;;5124486;28;20263;-69
2022/01/09 00:34:24;;;;;;;0.50;0.50;;;;;;;;;;5124199;28;20209;-69
2022/01/09 00:36:51;;;;;;;0.40;0.40;;;;;;;;;;5124183;28;20199;-69
2022/01/09 00:39:20;;;;;;;0.52;0.52;;;;;;;;;;5124277;28;20199;-69
2022/01/09 00:41:47;;;;;;;0.88;0.50;;;;;;;;;;5124112;28;20246;-69
2022/01/09 00:44:14;;;;;;;0.43;0.43;;;;;;;;;;5124359;28;20195;-69
2022/01/09 00:46:41;;;;;;;0.43;0.43;;;;;;;;;;5124063;28;20187;-69
2022/01/09 00:49:08;;;;;;;0.63;0.50;;;;;;;;;;5123633;28;20191;-69
2022/01/09 00:51:34;;;;;;;0.50;0.50;;;;;;;;;;5124332;28;20194;-69
2022/01/09 00:54:01;;;;;;;0.55;0.50;;;;;;;;;;5124525;28;20258;-69
2022/01/09 00:56:29;;;;;;;0.43;0.43;;;;;;;;;;5123946;28;20556;-69
2022/01/09 00:58:56;;;;;;;0.60;0.60;;;;;;;;;;5124123;28;20202;-69
2022/01/09 01:01:23;;;;;;;0.70;0.70;;;;;;;;;;5124180;28;20218;-69
2022/01/09 01:03:50;;;;;;;0.60;0.60;;;;;;;;;;5124171;28;20218;-69
2022/01/09 01:06:17;;;;;;;1.33;0.50;;;;;;;;;;5125209;28;20191;-69
2022/01/09 01:08:44;;;;;;;0.95;0.40;;;;;;;;;;5128180;28;20413;-69
2022/01/09 01:11:11;;;;;;;0.57;0.57;;;;;;;;;;5128345;28;20199;-69
2022/01/09 01:13:39;;;;;;;0.60;0.60;;;;;;;;;;5128193;28;20205;-69
2022/01/09 01:16:06;;;;;;;0.47;0.47;;;;;;;;;;5127549;28;20194;-69
2022/01/09 01:18:33;;;;;;;0.45;0.45;;;;;;;;;;5128022;28;20195;-69
2022/01/09 01:21:01;;;;;;;0.50;0.50;;;;;;;;;;5128000;28;20207;-69
2022/01/09 01:23:28;;;;;;;0.40;0.40;;;;;;;;;;5128230;28;20283;-69
2022/01/09 01:26:00;;;;;;;0.40;0.40;;;;;;;;;;5127769;28;20401;-69
2022/01/09 01:28:27;;;;;;;0.50;0.50;;;;;;;;;;5128155;28;20195;-69
2022/01/09 01:30:55;;;;;;;0.75;0.50;;;;;;;;;;5127693;28;20228;-69
2022/01/09 01:33:22;;;;;;;0.40;0.40;;;;;;;;;;5127596;28;20191;-69
2022/01/09 01:35:50;;;;;;;0.40;0.40;;;;;;;;;;5127223;28;20199;-69
2022/01/09 01:38:17;;;;;;;0.40;0.40;;;;;;;;;;5127723;28;20195;-69
2022/01/09 01:40:44;;;;;;;0.50;0.50;;;;;;;;;;5127754;28;20195;-69
2022/01/09 01:43:11;;;;;;;0.40;0.40;;;;;;;;;;5127791;28;20286;-69
2022/01/09 01:45:38;;;;;;;0.40;0.40;;;;;;;;;;5126849;28;20609;-69
2022/01/09 01:48:09;;;;;;;0.40;0.40;;;;;;;;;;5127248;28;20547;-69
2022/01/09 01:50:37;;;;;;;0.43;0.43;;;;;;;;;;5127695;28;20402;-69
2022/01/09 01:53:06;;;;;;;0.40;0.40;;;;;;;;;;5127671;28;20191;-69
2022/01/09 01:55:36;;;;;;;0.40;0.40;;;;;;;;;;5126920;28;20229;-69
2022/01/09 01:58:03;;;;;;;0.30;0.30;;;;;;;;;;5127514;28;20195;-69
2022/01/09 02:00:30;;;;;;;0.40;0.40;;;;;;;;;;5127251;28;20195;-69
2022/01/09 02:02:57;;;;;;;0.30;0.30;;;;;;;;;;5126829;28;20222;-69
2022/01/09 02:05:26;;;;;;;0.40;0.40;;;;;;;;;;5127063;28;20202;-69
2022/01/09 02:07:53;;;;;;;0.40;0.40;;;;;;;;;;5127728;28;20525;-69
2022/01/09 02:10:20;;;;;;;0.40;0.40;;;;;;;;;;5127552;28;20194;-69
2022/01/09 02:12:49;;;;;;;0.40;0.40;;;;;;;;;;5127354;28;20197;-69
2022/01/09 02:15:32;;;;;;;0.50;0.50;;;;;;;;;;5126797;28;20195;-69
2022/01/09 02:17:59;;;;;;;0.85;0.40;;;;;;;;;;5126098;28;20442;-69
2022/01/09 02:20:27;;;;;;;0.30;0.30;;;;;;;;;;5124363;28;20269;-69
2022/01/09 02:22:54;;;;;;;0.40;0.40;;;;;;;;;;5126620;28;20234;-69
2022/01/09 02:25:20;;;;;;;0.40;0.40;;;;;;;;;;5126683;28;20199;-69
2022/01/09 02:27:47;;;;;;;1.48;0.50;;;;;;;;;;5127348;28;20421;-69
2022/01/09 02:30:13;;;;;;;0.40;0.40;;;;;;;;;;5126863;28;20195;-69
2022/01/09 02:32:40;;;;;;;0.30;0.30;;;;;;;;;;5127186;28;20183;-69
2022/01/09 02:35:06;;;;;;;0.40;0.40;;;;;;;;;;5126758;28;20202;-69
2022/01/09 02:37:34;;;;;;;0.40;0.40;;;;;;;;;;5125935;28;20218;-69
2022/01/09 02:40:00;;;;;;;0.30;0.30;;;;;;;;;;5126641;28;20195;-69
2022/01/09 02:42:29;;;;;;;0.32;0.32;;;;;;;;;;5127105;28;20526;-69
2022/01/09 02:44:56;;;;;;;0.20;0.20;;;;;;;;;;5126636;28;20222;-69
2022/01/09 02:47:23;;;;;;;0.40;0.40;;;;;;;;;;5126618;28;20491;-69
2022/01/09 02:49:52;;;;;;;0.77;0.75;;;;;;;;;;5126287;28;20555;-69
2022/01/09 02:52:32;;;;;;;0.30;0.30;;;;;;;;;;5125965;28;20424;-68
2022/01/09 02:55:11;;;;;;;0.43;0.43;;;;;;;;;;5125748;28;20183;-68
2022/01/09 02:57:38;;;;;;;0.38;0.38;;;;;;;;;;5126053;28;20194;-68
2022/01/09 03:00:05;;;;;;;0.10;0.10;;;;;;;;;;5126039;28;20470;-68
2022/01/09 03:02:32;;;;;;;0.15;0.15;;;;;;;;;;5125858;28;20227;-68
2022/01/09 03:04:58;;;;;;;0.30;0.30;;;;;;;;;;5125804;28;20479;-68
2022/01/09 03:07:24;;;;;;;1.58;0.57;;;;;;;;;;5126181;28;20436;-69
2022/01/09 03:09:51;;;;;;;0.25;0.25;;;;;;;;;;5126021;28;20395;-69
2022/01/09 03:12:19;;;;;;;0.13;0.13;;;;;;;;;;5125585;28;20302;-69
2022/01/09 03:14:46;;;;;;;0.30;0.30;;;;;;;;;;5125581;28;20563;-69
2022/01/09 03:17:12;;;;;;;0.40;0.10;;;;;;;;;;5125587;28;20203;-69
2022/01/09 03:19:38;;;;;;;0.25;0.20;;;;;;;;;;5124953;28;20203;-69
2022/01/09 03:22:05;;;;;;;0.52;0.20;;;;;;;;;;5124764;28;20219;-69
2022/01/09 03:24:32;;;;;;;0.30;0.30;;;;;;;;;;5124765;28;20202;-69
2022/01/09 03:26:58;;;;;;;0.20;0.20;;;;;;;;;;5125200;28;20205;-69
2022/01/09 03:29:26;;;;;;;0.25;0.25;;;;;;;;;;5125672;28;20210;-69
2022/01/09 03:31:52;;;;;;;0.20;0.20;;;;;;;;;;5125276;28;20232;-69
2022/01/09 03:34:19;;;;;;;0.17;0.17;;;;;;;;;;5125499;28;20248;-69
2022/01/09 03:36:45;;;;;;;0.22;0.22;;;;;;;;;;5124719;28;20195;-69
2022/01/09 03:39:12;;;;;;;0.20;0.20;;;;;;;;;;5125787;28;20196;-69
2022/01/09 03:41:38;;;;;;;0.20;0.20;;;;;;;;;;5125392;28;20252;-69
2022/01/09 03:44:05;;;;;;;0.20;0.20;;;;;;;;;;5126146;28;20379;-69
2022/01/09 03:46:33;;;;;;;0.47;0.20;;;;;;;;;;5124947;28;20267;-69
2022/01/09 03:48:59;;;;;;;0.28;0.28;;;;;;;;;;5125505;28;20195;-69
2022/01/09 03:51:32;;;;;;;0.20;0.20;;;;;;;;;;5124671;28;20195;-66
2022/01/09 03:53:58;;;;;;;0.17;0.17;;;;;;;;;;5123825;28;20190;-66
2022/01/09 03:56:25;;;;;;;2.20;0.28;;;;;;;;;;5123209;28;20388;-66
2022/01/09 03:58:52;;;;;;;0.20;0.20;;;;;;;;;;5123338;28;20202;-66
2022/01/09 04:01:18;;;;;;;0.20;0.20;;;;;;;;;;5123305;28;20195;-66
2022/01/09 04:03:46;;;;;;;0.20;0.20;;;;;;;;;;5123439;28;20416;-66
2022/01/09 04:06:12;;;;;;;0.20;0.20;;;;;;;;;;5122848;28;20389;-66
2022/01/09 04:08:39;;;;;;;0.20;0.20;;;;;;;;;;5123331;28;20240;-66
2022/01/09 04:11:06;;;;;;;0.20;0.20;;;;;;;;;;5122891;28;20199;-66
2022/01/09 04:13:33;;;;;;;0.28;0.28;;;;;;;;;;5123374;28;20199;-66
2022/01/09 04:16:00;;;;;;;0.20;0.20;;;;;;;;;;5122694;28;20195;-66
2022/01/09 04:18:28;;;;;;;0.30;0.30;;;;;;;;;;5122873;28;20194;-67
2022/01/09 04:20:56;;;;;;;0.20;0.20;;;;;;;;;;5122623;28;20229;-66
2022/01/09 04:23:22;;;;;;;1.33;0.35;;;;;;;;;;5122845;28;20215;-65
2022/01/09 04:25:49;;;;;;;0.20;0.20;;;;;;;;;;5122421;28;20203;-65
2022/01/09 04:28:16;;;;;;;0.22;0.20;;;;;;;;;;5122724;28;20204;-67
2022/01/09 04:30:42;;;;;;;0.20;0.20;;;;;;;;;;5123008;28;20494;-66
2022/01/09 04:33:10;;;;;;;0.20;0.20;;;;;;;;;;5122835;28;20191;-66
2022/01/09 04:35:37;;;;;;;0.30;0.30;;;;;;;;;;5122167;28;20286;-66
2022/01/09 04:38:06;;;;;;;0.20;0.20;;;;;;;;;;5122666;28;20199;-65
2022/01/09 04:40:32;;;;;;;0.17;0.17;;;;;;;;;;5122167;28;20217;-65
2022/01/09 04:43:01;;;;;;;0.17;0.17;;;;;;;;;;5122736;28;20404;-65
2022/01/09 04:45:28;;;;;;;0.20;0.20;;;;;;;;;;5122243;28;20253;-65
2022/01/09 04:47:58;;;;;;;0.25;0.25;;;;;;;;;;5122646;28;20271;-65
2022/01/09 04:50:26;;;;;;;0.52;0.30;;;;;;;;;;5122530;28;20199;-65
2022/01/09 04:52:59;;;;;;;0.20;0.20;;;;;;;;;;5122902;28;20491;-65
2022/01/09 04:55:26;;;;;;;1.20;0.20;;;;;;;;;;5122291;28;20194;-65
2022/01/09 04:57:53;;;;;;;0.10;0.10;;;;;;;;;;5122479;28;20195;-66
2022/01/09 05:00:19;;;;;;;0.20;0.20;;;;;;;;;;5122529;28;20202;-66
2022/01/09 05:02:46;;;;;;;0.28;0.28;;;;;;;;;;5122602;28;20219;-66
2022/01/09 05:05:12;;;;;;;0.30;0.30;;;;;;;;;;5121880;28;20394;-67
2022/01/09 05:07:39;;;;;;;0.40;0.40;;;;;;;;;;5122751;28;20233;-66
2022/01/09 05:10:06;;;;;;;0.28;0.28;;;;;;;;;;5122535;28;20203;-67
2022/01/09 05:12:34;;;;;;;0.20;0.20;;;;;;;;;;5122614;28;20190;-67
2022/01/09 05:15:00;;;;;;;2.28;0.30;;;;;;;;;;5121846;28;20195;-66
2022/01/09 05:17:27;;;;;;;0.20;0.20;;;;;;;;;;5122318;28;20194;-65
2022/01/09 05:19:57;;;;;;;0.10;0.10;;;;;;;;;;5121931;28;20255;-65
2022/01/09 05:22:24;;;;;;;0.10;0.10;;;;;;;;;;5122622;28;20215;-65
2022/01/09 05:24:50;;;;;;;0.28;0.28;;;;;;;;;;5121930;28;20195;-66
2022/01/09 05:27:17;;;;;;;0.10;0.10;;;;;;;;;;5122006;28;20556;-66
2022/01/09 05:29:45;;;;;;;0.20;0.20;;;;;;;;;;5122362;28;20204;-66
2022/01/09 05:32:11;;;;;;;0.20;0.20;;;;;;;;;;5122099;28;20190;-67
2022/01/09 05:34:38;;;;;;;0.30;0.30;;;;;;;;;;5121562;28;20203;-66
2022/01/09 05:37:04;;;;;;;0.20;0.20;;;;;;;;;;5122337;28;20384;-67
2022/01/09 05:39:31;;;;;;;0.20;0.20;;;;;;;;;;5122284;28;20202;-67
2022/01/09 05:41:58;;;;;;;0.30;0.30;;;;;;;;;;5122211;28;20196;-67
2022/01/09 05:44:24;;;;;;;0.10;0.10;;;;;;;;;;5121973;28;20286;-67
2022/01/09 05:46:52;;;;;;;0.10;0.10;;;;;;;;;;5121569;28;20195;-67
2022/01/09 05:49:18;;;;;;;0.20;0.20;;;;;;;;;;5121939;28;20203;-67
2022/01/09 05:51:45;;;;;;;0.30;0.30;;;;;;;;;;5122763;28;20195;-67
2022/01/09 05:54:11;;;;;;;0.52;0.20;;;;;;;;;;5125967;28;20198;-67
2022/01/09 05:56:37;;;;;;;0.28;0.28;;;;;;;;;;5125102;28;20195;-67
2022/01/09 05:59:04;;;;;;;0.20;0.20;;;;;;;;;;5125631;28;20203;-67
2022/01/09 06:01:30;;;;;;;0.20;0.20;;;;;;;;;;5125544;28;20195;-67
2022/01/09 06:03:58;;;;;;;0.22;0.20;;;;;;;;;;5125383;28;20232;-66
2022/01/09 06:06:24;;;;;;;0.20;0.20;;;;;;;;;;5124625;28;20195;-66
2022/01/09 06:08:51;;;;;;;0.35;0.35;;;;;;;;;;5125909;28;20543;-66
2022/01/09 06:11:17;;;;;;;0.52;0.30;;;;;;;;;;5125245;28;20195;-66
2022/01/09 06:13:44;;;;;;;0.20;0.20;;;;;;;;;;5125380;28;20386;-66
2022/01/09 06:16:10;;;;;;;0.30;0.30;;;;;;;;;;5124734;28;20195;-66
2022/01/09 06:18:36;;;;;;;0.30;0.30;;;;;;;;;;5125359;28;20203;-66
2022/01/09 06:21:04;;;;;;;0.20;0.20;;;;;;;;;;5125409;28;20195;-66
2022/01/09 06:23:31;;;;;;;0.20;0.20;;;;;;;;;;5125451;28;20403;-66
2022/01/09 06:25:57;;;;;;;0.20;0.20;;;;;;;;;;5124785;28;20362;-66
2022/01/09 06:28:24;;;;;;;1.55;0.20;;;;;;;;;;5125325;28;20195;-66
2022/01/09 06:30:50;;;;;;;0.30;0.30;;;;;;;;;;5125194;28;20202;-66
2022/01/09 06:33:17;;;;;;;0.25;0.20;;;;;;;;;;5124880;28;20198;-66
2022/01/09 06:35:44;;;;;;;0.20;0.20;;;;;;;;;;5124571;28;20202;-66
2022/01/09 06:38:12;;;;;;;0.20;0.20;;;;;;;;;;5124924;28;20203;-66
2022/01/09 06:40:38;;;;;;;0.30;0.15;;;;;;;;;;5124729;28;20210;-66
2022/01/09 06:43:05;;;;;;;0.30;0.30;;;;;;;;;;5124818;28;20215;-66
2022/01/09 06:45:32;;;;;;;0.30;0.30;;;;;;;;;;5125190;28;20222;-68
2022/01/09 06:47:58;;;;;;;0.20;0.20;;;;;;;;;;5126424;28;20195;-67
2022/01/09 06:50:24;;;;;;;0.20;0.20;;;;;;;;;;5124840;28;20478;-66
2022/01/09 06:52:51;;;;;;;0.30;0.30;;;;;;;;;;5125262;28;20198;-68
2022/01/09 06:55:19;;;;;;;0.50;0.20;;;;;;;;;;5125748;28;20195;-69
2022/01/09 06:57:45;;;;;;;0.45;0.25;;;;;;;;;;5126347;28;20386;-69
2022/01/09 07:00:13;;;;;;;0.30;0.30;;;;;;;;;;5126162;28;20232;-69
2022/01/09 07:02:40;;;;;;;0.20;0.20;;;;;;;;;;5126175;28;20241;-69
2022/01/09 07:05:06;;;;;;;0.30;0.30;;;;;;;;;;5124359;28;20195;-67
2022/01/09 07:07:33;;;;;;;0.20;0.20;;;;;;;;;;5124713;28;20386;-67
2022/01/09 07:09:59;;;;;;;0.30;0.30;;;;;;;;;;5124047;28;20194;-67
2022/01/09 07:12:27;;;;;;;0.20;0.20;;;;;;;;;;5124117;28;20209;-67
2022/01/09 07:14:53;;;;;;;0.43;0.20;;;;;;;;;;5124032;28;20198;-67
2022/01/09 07:17:20;;;;;;;0.30;0.30;;;;;;;;;;5125175;28;20202;-68
2022/01/09 07:19:46;;;;;;;1.38;0.30;;;;;;;;;;5125295;28;20484;-69
2022/01/09 07:22:13;;;;;;;0.22;0.22;;;;;;;;;;5124206;28;20195;-69
2022/01/09 07:24:39;;;;;;;0.30;0.30;;;;;;;;;;5123611;28;20230;-69
2022/01/09 07:27:06;;;;;;;0.30;0.30;;;;;;;;;;5124254;28;20203;-69
2022/01/09 07:29:34;;;;;;;0.28;0.28;;;;;;;;;;5119365;28;20195;-58
2022/01/09 07:32:00;;;;;;;1.85;0.60;;;;;;;;;;5108515;28;20476;-57
2022/01/09 07:34:27;;;;;;;1.38;1.10;;;;;;;;;;5102699;28;20192;-58
2022/01/09 07:36:53;;;;;;;0.50;0.50;;;;;;;;;;5103363;28;20394;-58
2022/01/09 07:39:20;;;;;;;0.30;0.30;;;;;;;;;;5105444;28;20422;-53
2022/01/09 07:41:49;;;;;;;1.17;0.32;;;;;;;;;;5123303;28;20207;-53
2022/01/09 07:44:17;;;;;;;0.32;0.30;;;;;;;;;;5123063;28;20518;-57
2022/01/09 07:46:45;;;;;;;0.50;0.50;;;;;;;;;;5123204;28;20226;-57
2022/01/09 07:49:12;;;;;;;0.77;0.50;;;;;;;;;;5123524;28;20195;-56
2022/01/09 07:51:39;;;;;;;2.05;0.60;;;;;;;;;;5122795;28;20203;-56
2022/01/09 07:54:06;;;;;;;0.68;0.68;;;;;;;;;;5122640;28;20191;-55
2022/01/09 07:56:33;;;;;;;0.60;0.60;;;;;;;;;;5118458;28;20195;-59
2022/01/09 07:59:00;;;;;;;1.55;1.05;;;;;;;;;;5111556;28;20192;-54
2022/01/09 08:01:27;;;;;;;1.35;0.68;;;;;;;;;;5111520;28;20214;-56
2022/01/09 08:03:55;;;;;;;1.63;0.90;;;;;;;;;;5112927;28;20218;-54
2022/01/09 08:06:22;;;;;;;3.78;1.13;;;;;;;;;;5110902;28;20192;-56
2022/01/09 08:08:49;;;;;;;5.78;1.00;;;;;;;;;;5110733;28;20270;-56
2022/01/09 08:11:18;;;;;;;1.35;0.90;;;;;;;;;;5112508;28;20568;-54
2022/01/09 08:13:44;;;;;;;1.40;1.00;;;;;;;;;;5111392;28;20219;-55
2022/01/09 08:16:11;;;;;;;3.75;1.00;;;;;;;;;;5121121;28;20438;-58
2022/01/09 08:18:38;;;;;;;3.80;1.00;;;;;;;;;;5122414;28;20201;-59
2022/01/09 08:21:07;;;;;;;5.00;1.17;;;;;;;;;;5122103;28;20183;-59
2022/01/09 08:23:34;;;;;;;1.40;1.15;;;;;;;;;;5122536;28;20242;-59
2022/01/09 08:26:00;;;;;;;5.50;1.50;;;;;;;;;;5102675;28;20242;-59
2022/01/09 08:28:27;;;;;;;9.70;1.75;;;;;;;;;;5101943;28;20203;-59
2022/01/09 08:30:54;;;;;;;6.43;2.40;;;;;;;;;;5101870;28;20196;-58
2022/01/09 08:33:24;;;;;;;6.32;2.65;;;;;;;;;;5102100;28;20211;-61
2022/01/09 08:35:51;;;;;;;6.07;2.13;;;;;;;;;;5101343;28;20196;-60
2022/01/09 08:38:21;;;;;;;4.80;1.85;;;;;;;;;;5101727;28;20241;-59
2022/01/09 08:40:48;;;;;;;4.43;1.67;;;;;;;;;;5101820;28;20184;-59
2022/01/09 08:43:15;;;;;;;4.93;1.45;;;;;;;;;;5102145;28;20249;-60
2022/01/09 08:45:42;;;;;;;5.45;1.60;;;;;;;;;;5100674;28;20230;-60
2022/01/09 08:48:08;;;;;;;4.05;1.30;;;;;;;;;;5100996;28;20266;-61
2022/01/09 08:50:35;;;;;;;5.00;1.35;;;;;;;;;;5101700;28;20204;-59
2022/01/09 08:53:01;;;;;;;5.57;1.20;;;;;;;;;;5101858;28;20200;-59
2022/01/09 08:55:30;;;;;;;5.38;1.63;;;;;;;;;;5101316;28;20522;-60
2022/01/09 08:57:57;;;;;;;5.20;1.02;;;;;;;;;;5102054;28;20204;-60
2022/01/09 09:00:23;;;;;;;7.82;1.13;;;;;;;;;;5101249;28;20271;-59
2022/01/09 09:02:50;;;;;;;5.25;1.30;;;;;;;;;;5102025;28;20190;-59
2022/01/09 09:05:17;;;;;;;6.18;1.40;;;;;;;;;;5101322;28;20224;-57
2022/01/09 09:07:44;;;;;;;4.40;1.40;;;;;;;;;;5101885;28;20276;-59
2022/01/09 09:10:12;;;;;;;6.22;1.40;;;;;;;;;;5101792;28;20257;-59
2022/01/09 09:12:41;;;;;;;6.50;1.35;;;;;;;;;;5101862;28;20202;-58
2022/01/09 09:15:08;;;;;;;6.00;1.27;;;;;;;;;;5100459;28;20230;-59
2022/01/09 09:17:36;;;;;;;6.75;1.42;;;;;;;;;;5101942;28;20195;-59
2022/01/09 09:20:03;;;;;;;3.15;1.20;;;;;;;;;;5101795;28;20204;-60
2022/01/09 09:22:30;;;;;;;5.10;1.67;;;;;;;;;;5101897;28;20218;-61
2022/01/09 09:24:56;;;;;;;7.40;2.20;;;;;;;;;;5108583;28;20279;-60
2022/01/09 09:27:29;;;;;;;5.95;1.60;;;;;;;;;;5123767;28;20210;-60
2022/01/09 09:29:58;;;;;;;11.20;1.67;;;;;;;;;;5126109;28;20195;-60
2022/01/09 09:32:24;;;;;;;7.10;1.20;;;;;;;;;;5126413;28;20195;-56
2022/01/09 09:34:51;;;;;;;8.20;1.50;;;;;;;;;;5122301;28;20187;-56
2022/01/09 09:37:18;;;;;;;6.30;1.58;;;;;;;;;;5125495;28;20191;-58
2022/01/09 09:39:44;;;;;;;6.05;1.55;;;;;;;;;;5125156;28;20187;-58
2022/01/09 09:42:11;;;;;;;7.55;1.40;;;;;;;;;;5125737;28;20201;-58
2022/01/09 09:44:38;;;;;;;6.65;1.60;;;;;;;;;;5125537;28;20230;-60
2022/01/09 09:47:08;;;;;;;3.53;1.08;;;;;;;;;;5125625;28;20328;-59
2022/01/09 09:49:34;;;;;;;3.25;1.10;;;;;;;;;;5125917;28;20262;-58
2022/01/09 09:52:09;;;;;;;8.45;2.03;;;;;;;;;;5125511;28;20186;-57
2022/01/09 09:54:35;;;;;;;8.30;1.83;;;;;;;;;;5125237;28;20178;-53
2022/01/09 09:57:02;;;;;;;8.13;1.70;;;;;;;;;;5125525;28;20199;-54
2022/01/09 09:59:35;;;;;;;6.97;1.67;;;;;;;;;;5125938;28;20202;-55
2022/01/09 10:02:01;;;;;;;8.18;2.03;;;;;;;;;;5125735;28;20183;-59
2022/01/09 10:04:29;;;;;;;2.20;1.48;;;;;;;;;;5125679;28;20219;-60
2022/01/09 10:06:56;;;;;;;7.85;1.70;;;;;;;;;;5125314;28;20195;-59
2022/01/09 10:09:24;;;;;;;6.18;1.73;;;;;;;;;;5125421;28;20371;-58
2022/01/09 10:11:51;;;;;;;5.43;1.55;;;;;;;;;;5125379;28;20387;-57
2022/01/09 10:14:20;;;;;;;5.38;1.80;;;;;;;;;;5125389;28;20233;-60
2022/01/09 10:17:01;;;;;;;3.85;1.50;;;;;;;;;;5124635;28;20195;-59
2022/01/09 10:19:40;;;;;;;6.63;1.50;;;;;;;;;;5125024;28;20203;-59
2022/01/09 10:22:07;;;;;;;6.93;1.77;;;;;;;;;;5124875;28;20190;-59
2022/01/09 10:24:34;;;;;;;4.72;1.42;;;;;;;;;;5124750;28;20460;-58
2022/01/09 10:27:00;;;;;;;8.40;1.77;;;;;;;;;;5124988;28;20195;-57
2022/01/09 10:29:31;;;;;;;5.53;1.73;;;;;;;;;;5125285;28;20587;-59
2022/01/09 10:31:57;;;;;;;4.28;1.30;;;;;;;;;;5123801;28;20195;-58
2022/01/09 10:34:24;;;;;;;5.57;1.80;;;;;;;;;;5124592;28;20191;-54
2022/01/09 10:36:52;;;;;;;4.47;1.60;;;;;;;;;;5124816;28;20195;-56
2022/01/09 10:39:21;;;;;;;5.40;1.75;;;;;;;;;;5125005;28;20202;-59
2022/01/09 10:41:51;;;;;;;2.90;1.65;;;;;;;;;;5125528;28;20195;-53
2022/01/09 10:44:19;;;;;;;9.77;1.73;;;;;;;;;;5124783;28;20215;-53
2022/01/09 10:46:55;;;;;;;3.85;1.60;;;;;;;;;;5124046;28;20201;-54
2022/01/09 10:49:22;;;;;;;8.27;1.45;;;;;;;;;;5124855;28;20555;-55
2022/01/09 10:51:50;;;;;;;7.22;2.65;;;;;;;;;;5124760;28;20240;-54
2022/01/09 10:54:30;;;;;;;5.45;1.60;;;;;;;;;;5124512;28;20191;-56
2022/01/09 10:57:10;;;;;;;3.35;1.20;;;;;;;;;;5124368;28;20221;-55
2022/01/09 10:59:36;;;;;;;4.57;1.92;;;;;;;;;;5124654;28;20198;-56
2022/01/09 11:02:04;;;;;;;11.27;2.38;;;;;;;;;;5124549;28;20206;-58
2022/01/09 11:04:30;;;;;;;3.60;1.60;;;;;;;;;;5123769;28;20242;-58
2022/01/09 11:06:57;;;;;;;8.02;1.80;;;;;;;;;;5124064;28;20196;-58
2022/01/09 11:09:26;;;;;;;11.65;2.47;;;;;;;;;;5124782;28;20218;-58
2022/01/09 11:11:55;;;;;;;5.35;1.73;;;;;;;;;;5124203;28;20483;-59
2022/01/09 11:14:23;;;;;;;8.85;1.52;;;;;;;;;;5124288;28;20191;-58
2022/01/09 11:16:51;;;;;;;5.68;2.00;;;;;;;;;;5124100;28;20244;-57
2022/01/09 11:19:19;;;;;;;5.97;2.17;;;;;;;;;;5124045;28;20252;-59
2022/01/09 11:21:46;;;;;;;4.43;1.98;;;;;;;;;;5123942;28;20195;-53
2022/01/09 11:24:22;;;;;;;5.13;1.52;;;;;;;;;;5123991;28;20206;-55
2022/01/09 11:26:50;;;;;;;7.45;1.52;;;;;;;;;;5123836;28;20382;-55
2022/01/09 11:29:20;;;;;;;3.50;1.58;;;;;;;;;;5123985;28;20194;-53
2022/01/09 11:31:51;;;;;;;3.15;1.42;;;;;;;;;;5123898;28;20253;-53
2022/01/09 11:34:26;;;;;;;3.95;2.22;;;;;;;;;;5123768;28;20244;-53
2022/01/09 11:36:59;;;;;;;5.35;1.67;;;;;;;;;;5123722;28;20189;-54
2022/01/09 11:39:29;;;;;;;0.93;0.90;;;;;;;;;;5123768;28;20201;-54
2022/01/09 11:42:06;;;;;;;7.32;2.78;;;;;;;;;;5123880;28;20218;-53
2022/01/09 11:44:34;;;;;;;7.13;1.58;;;;;;;;;;5123064;28;20222;-53
2022/01/09 11:47:01;;;;;;;6.43;1.55;;;;;;;;;;5123487;28;20202;-55
2022/01/09 11:49:29;;;;;;;3.95;1.70;;;;;;;;;;5123020;28;20425;-59
2022/01/09 11:51:56;;;;;;;3.70;1.55;;;;;;;;;;5123468;28;20205;-59
2022/01/09 11:54:23;;;;;;;6.03;2.95;;;;;;;;;;5123616;28;20199;-59
2022/01/09 11:56:54;;;;;;;6.22;2.95;;;;;;;;;;5122988;28;20207;-58
2022/01/09 11:59:22;;;;;;;2.38;0.90;;;;;;;;;;5123230;28;20203;-55
2022/01/09 12:01:50;;;;;;;2.47;1.20;;;;;;;;;;5123024;28;20203;-59
2022/01/09 12:04:36;;;;;;;3.95;1.08;;;;;;;;;;5123421;28;20195;-59
2022/01/09 12:07:04;;;;;;;1.38;1.00;;;;;;;;;;5123054;28;20236;-58
2022/01/09 12:09:34;;;;;;;2.10;1.10;;;;;;;;;;5122985;28;20197;-59
2022/01/09 12:12:18;;;;;;;4.32;1.38;;;;;;;;;;5122914;28;20196;-55
2022/01/09 12:14:54;;;;;;;5.22;1.60;;;;;;;;;;5123236;28;20191;-58
2022/01/09 12:17:39;;;;;;;1.55;1.00;;;;;;;;;;5124085;28;20203;-58
2022/01/09 12:20:08;;;;;;;3.75;1.10;;;;;;;;;;5123835;28;20215;-59
2022/01/09 12:22:51;;;;;;;2.67;1.42;;;;;;;;;;5123912;28;20203;-57
2022/01/09 12:25:37;;;;;;;4.22;1.42;;;;;;;;;;5122057;28;20223;-58
2022/01/09 12:28:03;;;;;;;1.48;1.00;;;;;;;;;;5122961;28;20194;-58
2022/01/09 12:30:44;;;;;;;4.18;1.27;;;;;;;;;;5122600;28;20195;-58
2022/01/09 12:33:14;;;;;;;4.75;1.30;;;;;;;;;;5122850;28;20515;-58
2022/01/09 12:35:41;;;;;;;3.97;1.20;;;;;;;;;;5122658;28;20191;-58
2022/01/09 12:38:08;;;;;;;2.45;1.20;;;;;;;;;;5122862;28;20202;-56
2022/01/09 12:40:37;;;;;;;5.75;0.98;;;;;;;;;;5122266;28;20207;-52
2022/01/09 12:43:04;;;;;;;1.55;1.13;;;;;;;;;;5122953;28;20389;-53
2022/01/09 12:45:32;;;;;;;3.13;1.17;;;;;;;;;;5121878;28;20219;-56
2022/01/09 12:47:59;;;;;;;3.08;0.95;;;;;;;;;;5122309;28;20199;-57
2022/01/09 12:50:27;;;;;;;4.47;1.08;;;;;;;;;;5122426;28;20195;-57
2022/01/09 12:53:09;;;;;;;3.15;1.08;;;;;;;;;;5121881;28;20409;-53
2022/01/09 12:55:36;;;;;;;3.60;1.33;;;;;;;;;;5122204;28;20191;-56
2022/01/09 12:58:02;;;;;;;2.65;1.27;;;;;;;;;;5122283;28;20195;-54
2022/01/09 13:00:30;;;;;;;3.22;1.00;;;;;;;;;;5121943;28;20202;-53
2022/01/09 13:02:58;;;;;;;1.45;0.90;;;;;;;;;;5115349;28;20196;-53
2022/01/09 13:05:25;;;;;;;3.00;0.98;;;;;;;;;;5106061;28;20215;-54
2022/01/09 13:07:57;;;;;;;4.32;1.17;;;;;;;;;;5106393;28;20387;-58
2022/01/09 13:10:30;;;;;;;4.72;1.10;;;;;;;;;;5114538;27;20190;-58
2022/01/09 13:13:00;;;;;;;2.17;0.95;;;;;;;;;;5146276;27;20208;-59
2022/01/09 13:15:33;;;;;;;3.35;1.15;;;;;;;;;;5146478;27;20383;-55
2022/01/09 13:17:59;;;;;;;3.90;1.20;;;;;;;;;;5131157;27;20198;-55
2022/01/09 13:20:26;;;;;;;1.92;1.10;;;;;;;;;;5128601;28;20203;-59
2022/01/09 13:23:03;;;;;;;3.08;1.42;;;;;;;;;;5128834;28;20251;-61
2022/01/09 13:25:29;;;;;;;2.70;1.08;;;;;;;;;;5105668;28;20257;-61
2022/01/09 13:27:56;;;;;;;1.60;1.40;;;;;;;;;;5105011;28;20199;-60
2022/01/09 13:30:22;;;;;;;3.22;1.90;;;;;;;;;;5106024;28;20237;-60
2022/01/09 13:32:49;;;;;;;5.40;1.30;;;;;;;;;;5106525;28;20263;-61
2022/01/09 13:35:15;;;;;;;4.50;1.05;;;;;;;;;;5106088;28;20206;-60
2022/01/09 13:37:42;;;;;;;6.47;1.67;;;;;;;;;;5109338;28;20479;-59
2022/01/09 13:40:10;;;;;;;4.72;1.55;;;;;;;;;;5109219;28;20551;-59
2022/01/09 13:42:39;;;;;;;5.43;2.03;;;;;;;;;;5107316;28;20188;-59
2022/01/09 13:45:07;;;;;;;3.08;1.13;;;;;;;;;;5105139;28;20284;-59
2022/01/09 13:47:42;;;;;;;4.45;1.55;;;;;;;;;;5105790;28;20202;-59
2022/01/09 13:50:12;;;;;;;4.03;1.80;;;;;;;;;;5106442;28;20238;-57
2022/01/09 13:52:39;;;;;;;5.72;1.20;;;;;;;;;;5107069;28;20200;-59
2022/01/09 13:55:07;;;;;;;2.85;1.23;;;;;;;;;;5107095;28;20192;-59
2022/01/09 13:57:47;;;;;;;5.07;1.90;;;;;;;;;;5107731;28;20203;-58
2022/01/09 14:00:14;;;;;;;5.50;2.40;;;;;;;;;;5108049;28;20480;-59
2022/01/09 14:02:41;;;;;;;5.07;2.05;;;;;;;;;;5109020;28;20199;-59
2022/01/09 14:05:12;;;;;;;3.30;2.28;;;;;;;;;;5108143;28;20373;-59
2022/01/09 14:07:40;;;;;;;3.03;1.85;;;;;;;;;;5109394;28;20277;-59
2022/01/09 14:10:08;;;;;;;1.48;1.38;;;;;;;;;;5109797;28;20195;-59
2022/01/09 14:12:35;;;;;;;4.13;1.23;;;;;;;;;;5109468;28;20227;-58
2022/01/09 14:15:12;;;;;;;3.05;1.30;;;;;;;;;;5108199;28;20241;-59
2022/01/09 14:17:44;;;;;;;4.05;1.33;;;;;;;;;;5108529;28;20386;-59
2022/01/09 14:20:15;;;;;;;2.75;1.27;;;;;;;;;;5108368;28;20214;-58
2022/01/09 14:22:42;;;;;;;3.17;1.58;;;;;;;;;;5108470;28;20184;-58
2022/01/09 14:25:11;;;;;;;4.57;1.80;;;;;;;;;;5108025;28;20215;-59
2022/01/09 14:27:38;;;;;;;4.15;1.70;;;;;;;;;;5108202;28;20219;-59
2022/01/09 14:30:19;;;;;;;2.17;1.73;;;;;;;;;;5107107;28;20418;-59
2022/01/09 14:32:47;;;;;;;4.60;1.95;;;;;;;;;;5107189;28;20262;-61
2022/01/09 14:35:25;;;;;;;4.63;1.50;;;;;;;;;;5106580;28;20199;-59
2022/01/09 14:37:52;;;;;;;5.65;2.00;;;;;;;;;;5107426;28;20184;-58
2022/01/09 14:40:19;;;;;;;3.63;1.58;;;;;;;;;;5105394;28;20195;-55
2022/01/09 14:42:46;;;;;;;3.00;1.38;;;;;;;;;;5104606;28;20268;-53
2022/01/09 14:45:13;;;;;;;4.18;2.42;;;;;;;;;;5103730;28;20227;-54
2022/01/09 14:47:39;;;;;;;4.45;1.80;;;;;;;;;;5104270;28;20196;-57